Madras, OR (97741)

8:38 PM PST on February 12, 2016 (GMT -0800)
Grizzly Mt. SixSprings Ranch | | Change Station
CLOSE
Current Station
Personal Weather Station
Location: GRIZZLY MOUNTAIN, OR
Elevation: 4011 ft
Nearby Weather Stations

Elev 4011 ft 44.48 °N, 120.90 °W | Updated 8 minutes ago

Overcast
Overcast
38.8 °F
Feels Like 39 °F
N
0.0
Wind Variable Wind from SSE
Gusts 1.0 mph

Today
High -- | Low -- °F
--% Chance of Precip.
Yesterday
High -- | Low -- °F
Precip. -- in
Pressure 30.22 in
Visibility 10.0 miles
Clouds Overcast 3900 ft
Windchill 39 °F
Dew Point 37 °F
Humidity 93%
Rainfall 0.07 in
Snow Depth Not available.
7:09 AM 5:28 PM
Waxing Crescent, 27% visible
METAR KRDM 130356Z AUTO 32005KT 10SM OVC039 07/01 A3019 RMK AO2 RAB06E18 SLP234 P0000 T00720011
Pressure 30.22 in
Visibility 10.0 miles
Clouds Overcast 3900 ft
Windchill 39 °F
Dew Point 37 °F
Humidity 93%
Rainfall 0.07 in
Snow Depth Not available.
7:09 AM 5:28 PM
Waxing Crescent, 27% visible
METAR KRDM 130356Z AUTO 32005KT 10SM OVC039 07/01 A3019 RMK AO2 RAB06E18 SLP234 P0000 T00720011

10-Day Weather Forecast

Almanac

Astronomy

Feb. 12, 2016 Rise Set
Actual Time
Civil Twilight
Nautical Twilight
Astronomical Twilight
Moon
Length of Visible Light
Length of Day
Tomorrow will be .
, % of the Moon is Illuminated

Today's Extremes

State Highs State Lows

Community

WunderPhotos

Upload Photos

1,892,501 photos uploaded!

WunderBlog® & News

Nearby

Air Quality

  Air Quality AQ Index Pollutant
Not available.

Snow Depth

Station Depth Elevation

Earthquake Activity

City Distance Mag. Time & Date
Minimum magnitude displayed is 2.5.

Coastal Water Temperatures

Place Temperature

Stations

Nearby Weather Stations

Station Location Temp. Windchill Dew Point Humidity Wind Precip. Elev Updated Type
                   

Watches & Warnings

There are currently no watches in effect.